sensor_id;sensor_type;location;lat;lon;timestamp;P1;durP1;ratioP1;P2;durP2;ratioP2
56037;SDS011;41907;47.848;9.000;2022-08-19T00:00:06;3.35;;;2.13;;
56037;SDS011;41907;47.848;9.000;2022-08-19T00:02:34;2.08;;;1.77;;
56037;SDS011;41907;47.848;9.000;2022-08-19T00:05:00;1.30;;;1.20;;
56037;SDS011;41907;47.848;9.000;2022-08-19T00:07:26;2.22;;;1.98;;
56037;SDS011;41907;47.848;9.000;2022-08-19T00:09:52;4.07;;;3.15;;
56037;SDS011;41907;47.848;9.000;2022-08-19T00:12:17;5.28;;;4.00;;
56037;SDS011;41907;47.848;9.000;2022-08-19T00:14:42;7.88;;;3.80;;
56037;SDS011;41907;47.848;9.000;2022-08-19T00:17:08;5.50;;;3.08;;
56037;SDS011;41907;47.848;9.000;2022-08-19T00:19:34;6.18;;;3.30;;
56037;SDS011;41907;47.848;9.000;2022-08-19T00:22:01;5.47;;;3.58;;
56037;SDS011;41907;47.848;9.000;2022-08-19T00:24:27;4.20;;;3.25;;
56037;SDS011;41907;47.848;9.000;2022-08-19T00:26:53;4.50;;;3.40;;
56037;SDS011;41907;47.848;9.000;2022-08-19T00:29:20;5.22;;;3.67;;
56037;SDS011;41907;47.848;9.000;2022-08-19T00:31:47;4.40;;;3.60;;
56037;SDS011;41907;47.848;9.000;2022-08-19T00:34:13;4.97;;;3.13;;
56037;SDS011;41907;47.848;9.000;2022-08-19T00:36:40;10.65;;;5.22;;
56037;SDS011;41907;47.848;9.000;2022-08-19T00:39:07;14.88;;;7.78;;
56037;SDS011;41907;47.848;9.000;2022-08-19T00:41:33;15.77;;;7.13;;
56037;SDS011;41907;47.848;9.000;2022-08-19T00:44:04;13.07;;;7.25;;
56037;SDS011;41907;47.848;9.000;2022-08-19T00:46:33;16.35;;;7.55;;
56037;SDS011;41907;47.848;9.000;2022-08-19T00:49:02;12.90;;;7.45;;
56037;SDS011;41907;47.848;9.000;2022-08-19T00:51:31;15.27;;;8.93;;
56037;SDS011;41907;47.848;9.000;2022-08-19T00:53:57;14.77;;;9.10;;
56037;SDS011;41907;47.848;9.000;2022-08-19T00:56:23;14.05;;;8.82;;
56037;SDS011;41907;47.848;9.000;2022-08-19T00:58:51;15.82;;;8.75;;
56037;SDS011;41907;47.848;9.000;2022-08-19T01:01:17;13.15;;;8.13;;
56037;SDS011;41907;47.848;9.000;2022-08-19T01:03:42;14.23;;;8.85;;
56037;SDS011;41907;47.848;9.000;2022-08-19T01:06:08;14.02;;;8.52;;
56037;SDS011;41907;47.848;9.000;2022-08-19T01:08:33;11.18;;;7.72;;
56037;SDS011;41907;47.848;9.000;2022-08-19T01:10:59;11.38;;;7.82;;
56037;SDS011;41907;47.848;9.000;2022-08-19T01:13:27;10.27;;;7.32;;
56037;SDS011;41907;47.848;9.000;2022-08-19T01:15:56;13.52;;;7.95;;
56037;SDS011;41907;47.848;9.000;2022-08-19T01:18:25;12.00;;;8.27;;
56037;SDS011;41907;47.848;9.000;2022-08-19T01:20:53;11.30;;;7.35;;
56037;SDS011;41907;47.848;9.000;2022-08-19T01:23:20;9.18;;;6.68;;
56037;SDS011;41907;47.848;9.000;2022-08-19T01:25:50;11.15;;;7.18;;
56037;SDS011;41907;47.848;9.000;2022-08-19T01:28:23;9.73;;;6.72;;
56037;SDS011;41907;47.848;9.000;2022-08-19T01:30:51;11.68;;;7.55;;
56037;SDS011;41907;47.848;9.000;2022-08-19T01:33:18;9.00;;;6.35;;
56037;SDS011;41907;47.848;9.000;2022-08-19T01:35:44;8.20;;;5.80;;
56037;SDS011;41907;47.848;9.000;2022-08-19T01:38:19;10.30;;;6.05;;
56037;SDS011;41907;47.848;9.000;2022-08-19T01:40:47;8.27;;;6.13;;
56037;SDS011;41907;47.848;9.000;2022-08-19T01:43:12;10.30;;;6.47;;
56037;SDS011;41907;47.848;9.000;2022-08-19T01:45:38;8.55;;;6.35;;
56037;SDS011;41907;47.848;9.000;2022-08-19T01:48:05;7.82;;;6.07;;
56037;SDS011;41907;47.848;9.000;2022-08-19T01:50:34;10.23;;;6.93;;
56037;SDS011;41907;47.848;9.000;2022-08-19T01:53:01;9.30;;;6.28;;
56037;SDS011;41907;47.848;9.000;2022-08-19T01:55:28;10.27;;;6.53;;
56037;SDS011;41907;47.848;9.000;2022-08-19T01:57:55;9.95;;;7.20;;
56037;SDS011;41907;47.848;9.000;2022-08-19T02:00:23;8.60;;;5.80;;
56037;SDS011;41907;47.848;9.000;2022-08-19T02:02:50;10.43;;;6.53;;
56037;SDS011;41907;47.848;9.000;2022-08-19T02:05:16;8.82;;;6.68;;
56037;SDS011;41907;47.848;9.000;2022-08-19T02:07:43;9.15;;;6.57;;
56037;SDS011;41907;47.848;9.000;2022-08-19T02:10:10;9.13;;;6.43;;
56037;SDS011;41907;47.848;9.000;2022-08-19T02:12:38;9.88;;;6.85;;
56037;SDS011;41907;47.848;9.000;2022-08-19T02:15:04;11.30;;;7.68;;
56037;SDS011;41907;47.848;9.000;2022-08-19T02:17:31;10.25;;;7.20;;
56037;SDS011;41907;47.848;9.000;2022-08-19T02:19:57;12.80;;;8.00;;
56037;SDS011;41907;47.848;9.000;2022-08-19T02:22:22;12.05;;;7.97;;
56037;SDS011;41907;47.848;9.000;2022-08-19T02:24:49;12.00;;;8.00;;
56037;SDS011;41907;47.848;9.000;2022-08-19T02:27:14;14.23;;;9.15;;
56037;SDS011;41907;47.848;9.000;2022-08-19T02:29:40;16.10;;;9.15;;
56037;SDS011;41907;47.848;9.000;2022-08-19T02:32:06;14.05;;;8.48;;
56037;SDS011;41907;47.848;9.000;2022-08-19T02:34:31;11.98;;;8.15;;
56037;SDS011;41907;47.848;9.000;2022-08-19T02:36:57;14.13;;;8.75;;
56037;SDS011;41907;47.848;9.000;2022-08-19T02:39:22;12.85;;;8.30;;
56037;SDS011;41907;47.848;9.000;2022-08-19T02:41:47;11.68;;;8.07;;
56037;SDS011;41907;47.848;9.000;2022-08-19T02:44:14;13.13;;;8.55;;
56037;SDS011;41907;47.848;9.000;2022-08-19T02:46:39;11.07;;;7.43;;
56037;SDS011;41907;47.848;9.000;2022-08-19T02:49:06;14.10;;;7.75;;
56037;SDS011;41907;47.848;9.000;2022-08-19T02:51:34;12.48;;;8.25;;
56037;SDS011;41907;47.848;9.000;2022-08-19T02:54:01;13.20;;;7.88;;
56037;SDS011;41907;47.848;9.000;2022-08-19T02:56:29;12.60;;;8.63;;
56037;SDS011;41907;47.848;9.000;2022-08-19T02:58:56;12.75;;;8.70;;
56037;SDS011;41907;47.848;9.000;2022-08-19T03:01:26;13.65;;;9.07;;
56037;SDS011;41907;47.848;9.000;2022-08-19T03:03:58;10.80;;;7.95;;
56037;SDS011;41907;47.848;9.000;2022-08-19T03:06:26;12.68;;;8.48;;
56037;SDS011;41907;47.848;9.000;2022-08-19T03:08:52;14.52;;;8.65;;
56037;SDS011;41907;47.848;9.000;2022-08-19T03:11:25;13.32;;;8.60;;
56037;SDS011;41907;47.848;9.000;2022-08-19T03:13:53;13.18;;;8.98;;
56037;SDS011;41907;47.848;9.000;2022-08-19T03:16:19;17.38;;;10.20;;
56037;SDS011;41907;47.848;9.000;2022-08-19T03:18:46;15.23;;;9.57;;
56037;SDS011;41907;47.848;9.000;2022-08-19T03:21:31;16.33;;;9.35;;
56037;SDS011;41907;47.848;9.000;2022-08-19T03:23:59;15.77;;;10.02;;
56037;SDS011;41907;47.848;9.000;2022-08-19T03:26:30;15.45;;;9.52;;
56037;SDS011;41907;47.848;9.000;2022-08-19T03:28:56;16.73;;;9.48;;
56037;SDS011;41907;47.848;9.000;2022-08-19T03:31:26;15.77;;;9.50;;
56037;SDS011;41907;47.848;9.000;2022-08-19T03:33:52;16.90;;;9.98;;
56037;SDS011;41907;47.848;9.000;2022-08-19T03:36:19;19.85;;;10.95;;
56037;SDS011;41907;47.848;9.000;2022-08-19T03:38:50;19.08;;;12.07;;
56037;SDS011;41907;47.848;9.000;2022-08-19T03:41:29;15.73;;;10.05;;
56037;SDS011;41907;47.848;9.000;2022-08-19T03:43:56;15.15;;;9.63;;
56037;SDS011;41907;47.848;9.000;2022-08-19T03:46:24;15.98;;;9.60;;
56037;SDS011;41907;47.848;9.000;2022-08-19T03:48:55;16.45;;;9.77;;
56037;SDS011;41907;47.848;9.000;2022-08-19T03:51:23;16.73;;;9.13;;
56037;SDS011;41907;47.848;9.000;2022-08-19T03:53:51;16.25;;;10.18;;
56037;SDS011;41907;47.848;9.000;2022-08-19T03:56:19;18.35;;;10.15;;
56037;SDS011;41907;47.848;9.000;2022-08-19T03:58:44;17.80;;;10.73;;
56037;SDS011;41907;47.848;9.000;2022-08-19T04:01:11;21.05;;;10.57;;
56037;SDS011;41907;47.848;9.000;2022-08-19T04:03:40;13.93;;;9.48;;
56037;SDS011;41907;47.848;9.000;2022-08-19T04:06:13;17.30;;;10.65;;
56037;SDS011;41907;47.848;9.000;2022-08-19T04:08:46;18.30;;;10.55;;
56037;SDS011;41907;47.848;9.000;2022-08-19T04:11:13;15.27;;;10.00;;
56037;SDS011;41907;47.848;9.000;2022-08-19T04:13:41;15.50;;;9.38;;
56037;SDS011;41907;47.848;9.000;2022-08-19T04:16:09;17.38;;;10.15;;
56037;SDS011;41907;47.848;9.000;2022-08-19T04:18:35;17.70;;;9.70;;
56037;SDS011;41907;47.848;9.000;2022-08-19T04:21:02;15.25;;;9.50;;
56037;SDS011;41907;47.848;9.000;2022-08-19T04:23:27;21.60;;;12.90;;
56037;SDS011;41907;47.848;9.000;2022-08-19T04:25:56;23.48;;;10.40;;
56037;SDS011;41907;47.848;9.000;2022-08-19T04:28:22;18.25;;;10.57;;
56037;SDS011;41907;47.848;9.000;2022-08-19T04:30:49;16.98;;;10.52;;
56037;SDS011;41907;47.848;9.000;2022-08-19T04:33:16;18.95;;;11.32;;
56037;SDS011;41907;47.848;9.000;2022-08-19T04:35:45;18.95;;;10.95;;
56037;SDS011;41907;47.848;9.000;2022-08-19T04:38:12;16.60;;;10.68;;
56037;SDS011;41907;47.848;9.000;2022-08-19T04:40:45;17.98;;;11.05;;
56037;SDS011;41907;47.848;9.000;2022-08-19T04:43:31;23.77;;;12.75;;
56037;SDS011;41907;47.848;9.000;2022-08-19T04:45:58;26.35;;;17.02;;
56037;SDS011;41907;47.848;9.000;2022-08-19T04:48:30;22.88;;;13.45;;
56037;SDS011;41907;47.848;9.000;2022-08-19T04:50:56;20.40;;;12.02;;
56037;SDS011;41907;47.848;9.000;2022-08-19T04:53:29;19.30;;;11.88;;
56037;SDS011;41907;47.848;9.000;2022-08-19T04:55:56;19.13;;;11.82;;
56037;SDS011;41907;47.848;9.000;2022-08-19T04:58:23;20.38;;;11.88;;
56037;SDS011;41907;47.848;9.000;2022-08-19T05:00:50;22.33;;;12.75;;
56037;SDS011;41907;47.848;9.000;2022-08-19T05:03:16;21.10;;;12.43;;
56037;SDS011;41907;47.848;9.000;2022-08-19T05:05:42;21.63;;;12.55;;
56037;SDS011;41907;47.848;9.000;2022-08-19T05:08:09;24.23;;;13.35;;
56037;SDS011;41907;47.848;9.000;2022-08-19T05:10:36;20.33;;;11.98;;
56037;SDS011;41907;47.848;9.000;2022-08-19T05:13:03;22.40;;;12.70;;
56037;SDS011;41907;47.848;9.000;2022-08-19T05:15:28;20.15;;;11.85;;
56037;SDS011;41907;47.848;9.000;2022-08-19T05:17:54;20.95;;;11.93;;
56037;SDS011;41907;47.848;9.000;2022-08-19T05:20:38;20.25;;;11.48;;
56037;SDS011;41907;47.848;9.000;2022-08-19T05:23:22;19.40;;;11.63;;
56037;SDS011;41907;47.848;9.000;2022-08-19T05:25:48;24.20;;;13.07;;
56037;SDS011;41907;47.848;9.000;2022-08-19T05:28:14;19.60;;;12.95;;
56037;SDS011;41907;47.848;9.000;2022-08-19T05:30:40;22.00;;;12.98;;
56037;SDS011;41907;47.848;9.000;2022-08-19T05:33:06;30.92;;;16.10;;
56037;SDS011;41907;47.848;9.000;2022-08-19T05:35:34;25.10;;;14.27;;
56037;SDS011;41907;47.848;9.000;2022-08-19T05:38:01;27.05;;;15.18;;
56037;SDS011;41907;47.848;9.000;2022-08-19T05:40:26;23.13;;;13.63;;
56037;SDS011;41907;47.848;9.000;2022-08-19T05:42:52;20.25;;;12.73;;
56037;SDS011;41907;47.848;9.000;2022-08-19T05:45:18;20.77;;;13.15;;
56037;SDS011;41907;47.848;9.000;2022-08-19T05:47:43;26.88;;;13.73;;
56037;SDS011;41907;47.848;9.000;2022-08-19T05:50:09;24.23;;;13.13;;
56037;SDS011;41907;47.848;9.000;2022-08-19T05:52:36;18.90;;;11.73;;
56037;SDS011;41907;47.848;9.000;2022-08-19T05:55:03;22.27;;;12.15;;
56037;SDS011;41907;47.848;9.000;2022-08-19T05:57:30;23.08;;;12.77;;
56037;SDS011;41907;47.848;9.000;2022-08-19T05:59:56;22.48;;;12.65;;
56037;SDS011;41907;47.848;9.000;2022-08-19T06:02:22;25.15;;;14.00;;
56037;SDS011;41907;47.848;9.000;2022-08-19T06:04:47;21.83;;;13.43;;
56037;SDS011;41907;47.848;9.000;2022-08-19T06:07:13;21.33;;;12.77;;
56037;SDS011;41907;47.848;9.000;2022-08-19T06:09:39;51.17;;;29.50;;
56037;SDS011;41907;47.848;9.000;2022-08-19T06:12:05;38.17;;;22.63;;
56037;SDS011;41907;47.848;9.000;2022-08-19T06:14:32;30.25;;;17.88;;
56037;SDS011;41907;47.848;9.000;2022-08-19T06:16:59;23.25;;;12.65;;
56037;SDS011;41907;47.848;9.000;2022-08-19T06:19:26;22.35;;;12.52;;
56037;SDS011;41907;47.848;9.000;2022-08-19T06:21:55;19.98;;;12.75;;
56037;SDS011;41907;47.848;9.000;2022-08-19T06:24:23;21.00;;;11.85;;
56037;SDS011;41907;47.848;9.000;2022-08-19T06:26:51;19.33;;;11.95;;
56037;SDS011;41907;47.848;9.000;2022-08-19T06:29:19;20.27;;;12.18;;
56037;SDS011;41907;47.848;9.000;2022-08-19T06:31:50;21.98;;;12.85;;
56037;SDS011;41907;47.848;9.000;2022-08-19T06:34:18;20.98;;;12.63;;
56037;SDS011;41907;47.848;9.000;2022-08-19T06:36:45;21.88;;;13.38;;
56037;SDS011;41907;47.848;9.000;2022-08-19T06:39:17;21.38;;;12.88;;
56037;SDS011;41907;47.848;9.000;2022-08-19T06:41:51;39.03;;;24.63;;
56037;SDS011;41907;47.848;9.000;2022-08-19T06:44:19;50.08;;;27.83;;
56037;SDS011;41907;47.848;9.000;2022-08-19T06:46:46;23.20;;;14.25;;
56037;SDS011;41907;47.848;9.000;2022-08-19T06:49:12;19.25;;;11.85;;
56037;SDS011;41907;47.848;9.000;2022-08-19T06:51:42;21.67;;;12.13;;
56037;SDS011;41907;47.848;9.000;2022-08-19T06:54:08;21.52;;;13.07;;
56037;SDS011;41907;47.848;9.000;2022-08-19T06:56:35;20.38;;;13.10;;
56037;SDS011;41907;47.848;9.000;2022-08-19T06:59:05;22.17;;;12.82;;
56037;SDS011;41907;47.848;9.000;2022-08-19T07:01:36;22.25;;;12.95;;
56037;SDS011;41907;47.848;9.000;2022-08-19T07:04:08;22.95;;;13.55;;
56037;SDS011;41907;47.848;9.000;2022-08-19T07:06:34;19.45;;;11.95;;
56037;SDS011;41907;47.848;9.000;2022-08-19T07:09:01;19.70;;;12.20;;
56037;SDS011;41907;47.848;9.000;2022-08-19T07:11:27;20.70;;;12.75;;
56037;SDS011;41907;47.848;9.000;2022-08-19T07:13:52;23.85;;;13.43;;
56037;SDS011;41907;47.848;9.000;2022-08-19T07:16:18;20.42;;;12.20;;
56037;SDS011;41907;47.848;9.000;2022-08-19T07:18:45;17.85;;;11.77;;
56037;SDS011;41907;47.848;9.000;2022-08-19T07:21:16;21.40;;;12.82;;
56037;SDS011;41907;47.848;9.000;2022-08-19T07:23:47;20.38;;;12.30;;
56037;SDS011;41907;47.848;9.000;2022-08-19T07:26:15;32.50;;;19.58;;
56037;SDS011;41907;47.848;9.000;2022-08-19T07:28:44;39.80;;;22.70;;
56037;SDS011;41907;47.848;9.000;2022-08-19T07:31:11;25.90;;;16.13;;
56037;SDS011;41907;47.848;9.000;2022-08-19T07:33:38;21.92;;;12.90;;
56037;SDS011;41907;47.848;9.000;2022-08-19T07:36:06;22.83;;;13.50;;
56037;SDS011;41907;47.848;9.000;2022-08-19T07:38:35;20.77;;;13.55;;
56037;SDS011;41907;47.848;9.000;2022-08-19T07:41:00;20.50;;;13.98;;
56037;SDS011;41907;47.848;9.000;2022-08-19T07:43:26;21.95;;;13.77;;
56037;SDS011;41907;47.848;9.000;2022-08-19T07:45:52;25.55;;;14.43;;
56037;SDS011;41907;47.848;9.000;2022-08-19T07:48:22;19.30;;;12.23;;
56037;SDS011;41907;47.848;9.000;2022-08-19T07:50:51;22.20;;;13.38;;
56037;SDS011;41907;47.848;9.000;2022-08-19T07:53:21;21.55;;;13.00;;
56037;SDS011;41907;47.848;9.000;2022-08-19T07:55:47;20.02;;;11.95;;
56037;SDS011;41907;47.848;9.000;2022-08-19T07:58:14;22.20;;;12.65;;
56037;SDS011;41907;47.848;9.000;2022-08-19T08:00:41;25.50;;;14.18;;
56037;SDS011;41907;47.848;9.000;2022-08-19T08:03:07;20.85;;;12.45;;
56037;SDS011;41907;47.848;9.000;2022-08-19T08:05:33;21.42;;;13.15;;
56037;SDS011;41907;47.848;9.000;2022-08-19T08:08:18;20.83;;;12.68;;
56037;SDS011;41907;47.848;9.000;2022-08-19T08:11:01;22.70;;;13.57;;
56037;SDS011;41907;47.848;9.000;2022-08-19T08:13:28;21.13;;;13.63;;
56037;SDS011;41907;47.848;9.000;2022-08-19T08:15:53;22.73;;;12.65;;
56037;SDS011;41907;47.848;9.000;2022-08-19T08:18:18;19.88;;;12.55;;
56037;SDS011;41907;47.848;9.000;2022-08-19T08:20:45;21.52;;;13.65;;
56037;SDS011;41907;47.848;9.000;2022-08-19T08:23:10;20.30;;;12.70;;
56037;SDS011;41907;47.848;9.000;2022-08-19T08:25:50;25.73;;;17.45;;
56037;SDS011;41907;47.848;9.000;2022-08-19T08:28:16;30.92;;;17.77;;
56037;SDS011;41907;47.848;9.000;2022-08-19T08:30:42;28.63;;;14.90;;
56037;SDS011;41907;47.848;9.000;2022-08-19T08:33:08;23.45;;;14.13;;
56037;SDS011;41907;47.848;9.000;2022-08-19T08:35:34;21.98;;;12.98;;
56037;SDS011;41907;47.848;9.000;2022-08-19T08:38:00;21.02;;;13.60;;
56037;SDS011;41907;47.848;9.000;2022-08-19T08:40:39;20.60;;;13.30;;
56037;SDS011;41907;47.848;9.000;2022-08-19T08:51:50;23.38;;;13.50;;
56037;SDS011;41907;47.848;9.000;2022-08-19T08:54:20;23.48;;;13.82;;
56037;SDS011;41907;47.848;9.000;2022-08-19T08:56:49;26.35;;;14.10;;
56037;SDS011;41907;47.848;9.000;2022-08-19T09:01:46;21.80;;;12.80;;
56037;SDS011;41907;47.848;9.000;2022-08-19T09:04:11;21.88;;;14.15;;
56037;SDS011;41907;47.848;9.000;2022-08-19T09:06:40;26.25;;;14.93;;
56037;SDS011;41907;47.848;9.000;2022-08-19T09:09:39;22.15;;;13.32;;
56037;SDS011;41907;47.848;9.000;2022-08-19T09:12:25;22.50;;;13.57;;
56037;SDS011;41907;47.848;9.000;2022-08-19T09:15:06;22.52;;;13.98;;
56037;SDS011;41907;47.848;9.000;2022-08-19T09:17:34;23.20;;;15.45;;
56037;SDS011;41907;47.848;9.000;2022-08-19T09:22:33;24.77;;;14.65;;
56037;SDS011;41907;47.848;9.000;2022-08-19T09:24:59;24.20;;;14.27;;
56037;SDS011;41907;47.848;9.000;2022-08-19T09:27:25;28.35;;;14.63;;
56037;SDS011;41907;47.848;9.000;2022-08-19T09:29:52;28.60;;;14.93;;
56037;SDS011;41907;47.848;9.000;2022-08-19T09:32:18;28.75;;;14.75;;
56037;SDS011;41907;47.848;9.000;2022-08-19T09:34:44;28.83;;;15.82;;
56037;SDS011;41907;47.848;9.000;2022-08-19T09:37:10;27.25;;;15.50;;
56037;SDS011;41907;47.848;9.000;2022-08-19T09:39:35;46.13;;;27.30;;
56037;SDS011;41907;47.848;9.000;2022-08-19T09:42:02;36.30;;;19.73;;
56037;SDS011;41907;47.848;9.000;2022-08-19T09:44:28;26.80;;;14.23;;
56037;SDS011;41907;47.848;9.000;2022-08-19T09:46:54;26.13;;;15.05;;
56037;SDS011;41907;47.848;9.000;2022-08-19T09:49:19;29.77;;;16.83;;
56037;SDS011;41907;47.848;9.000;2022-08-19T09:51:51;30.15;;;16.08;;
56037;SDS011;41907;47.848;9.000;2022-08-19T09:54:20;29.38;;;15.80;;
56037;SDS011;41907;47.848;9.000;2022-08-19T09:56:46;29.00;;;16.42;;
56037;SDS011;41907;47.848;9.000;2022-08-19T09:59:11;25.85;;;15.30;;
56037;SDS011;41907;47.848;9.000;2022-08-19T10:01:37;25.90;;;14.98;;
56037;SDS011;41907;47.848;9.000;2022-08-19T10:04:03;28.15;;;16.70;;
56037;SDS011;41907;47.848;9.000;2022-08-19T10:06:33;29.42;;;15.23;;
56037;SDS011;41907;47.848;9.000;2022-08-19T10:09:00;28.20;;;15.05;;
56037;SDS011;41907;47.848;9.000;2022-08-19T10:11:29;30.17;;;15.32;;
56037;SDS011;41907;47.848;9.000;2022-08-19T10:13:54;29.17;;;15.32;;
56037;SDS011;41907;47.848;9.000;2022-08-19T10:16:20;27.80;;;15.35;;
56037;SDS011;41907;47.848;9.000;2022-08-19T10:18:47;29.65;;;15.48;;
56037;SDS011;41907;47.848;9.000;2022-08-19T10:21:15;30.23;;;16.40;;
56037;SDS011;41907;47.848;9.000;2022-08-19T10:23:44;28.73;;;14.82;;
56037;SDS011;41907;47.848;9.000;2022-08-19T10:26:13;27.50;;;15.32;;
56037;SDS011;41907;47.848;9.000;2022-08-19T10:28:40;26.42;;;15.13;;
56037;SDS011;41907;47.848;9.000;2022-08-19T10:31:07;26.33;;;15.80;;
56037;SDS011;41907;47.848;9.000;2022-08-19T10:33:35;30.40;;;16.40;;
56037;SDS011;41907;47.848;9.000;2022-08-19T10:36:05;25.98;;;15.43;;
56037;SDS011;41907;47.848;9.000;2022-08-19T10:38:33;26.92;;;16.73;;
56037;SDS011;41907;47.848;9.000;2022-08-19T10:41:06;26.30;;;15.75;;
56037;SDS011;41907;47.848;9.000;2022-08-19T10:43:33;23.97;;;14.53;;
56037;SDS011;41907;47.848;9.000;2022-08-19T10:46:02;24.75;;;15.52;;
56037;SDS011;41907;47.848;9.000;2022-08-19T10:48:29;24.35;;;14.93;;
56037;SDS011;41907;47.848;9.000;2022-08-19T10:50:56;22.40;;;13.93;;
56037;SDS011;41907;47.848;9.000;2022-08-19T10:53:40;25.95;;;14.88;;
56037;SDS011;41907;47.848;9.000;2022-08-19T10:56:06;30.25;;;15.98;;
56037;SDS011;41907;47.848;9.000;2022-08-19T10:58:50;31.17;;;16.33;;
56037;SDS011;41907;47.848;9.000;2022-08-19T11:01:15;26.08;;;15.95;;
56037;SDS011;41907;47.848;9.000;2022-08-19T11:03:40;25.05;;;14.25;;
56037;SDS011;41907;47.848;9.000;2022-08-19T11:06:06;25.23;;;14.13;;
56037;SDS011;41907;47.848;9.000;2022-08-19T11:08:34;26.85;;;14.98;;
56037;SDS011;41907;47.848;9.000;2022-08-19T11:11:02;29.58;;;14.88;;
56037;SDS011;41907;47.848;9.000;2022-08-19T11:13:33;28.05;;;15.85;;
56037;SDS011;41907;47.848;9.000;2022-08-19T11:16:03;28.67;;;16.15;;
56037;SDS011;41907;47.848;9.000;2022-08-19T11:18:33;28.30;;;15.80;;
56037;SDS011;41907;47.848;9.000;2022-08-19T11:21:10;25.73;;;14.18;;
56037;SDS011;41907;47.848;9.000;2022-08-19T11:23:37;38.38;;;21.58;;
56037;SDS011;41907;47.848;9.000;2022-08-19T11:26:03;36.90;;;19.50;;
56037;SDS011;41907;47.848;9.000;2022-08-19T11:28:28;27.40;;;15.48;;
56037;SDS011;41907;47.848;9.000;2022-08-19T11:30:54;26.63;;;15.32;;
56037;SDS011;41907;47.848;9.000;2022-08-19T11:33:19;29.13;;;15.27;;
56037;SDS011;41907;47.848;9.000;2022-08-19T11:35:44;27.30;;;14.45;;
56037;SDS011;41907;47.848;9.000;2022-08-19T11:38:10;28.80;;;15.38;;
56037;SDS011;41907;47.848;9.000;2022-08-19T11:40:36;23.27;;;14.27;;
56037;SDS011;41907;47.848;9.000;2022-08-19T11:43:01;22.58;;;14.40;;
56037;SDS011;41907;47.848;9.000;2022-08-19T11:45:27;26.08;;;14.10;;
56037;SDS011;41907;47.848;9.000;2022-08-19T11:47:54;26.40;;;14.43;;
56037;SDS011;41907;47.848;9.000;2022-08-19T11:50:20;25.25;;;14.80;;
56037;SDS011;41907;47.848;9.000;2022-08-19T11:52:47;21.83;;;13.85;;
56037;SDS011;41907;47.848;9.000;2022-08-19T11:55:14;24.27;;;14.65;;
56037;SDS011;41907;47.848;9.000;2022-08-19T11:57:40;27.15;;;14.95;;
56037;SDS011;41907;47.848;9.000;2022-08-19T12:00:06;25.83;;;14.65;;
56037;SDS011;41907;47.848;9.000;2022-08-19T12:02:32;25.00;;;14.38;;
56037;SDS011;41907;47.848;9.000;2022-08-19T12:04:58;29.27;;;17.73;;
56037;SDS011;41907;47.848;9.000;2022-08-19T12:07:28;35.15;;;19.77;;
56037;SDS011;41907;47.848;9.000;2022-08-19T12:09:56;39.33;;;24.13;;
56037;SDS011;41907;47.848;9.000;2022-08-19T12:12:21;27.73;;;15.38;;
56037;SDS011;41907;47.848;9.000;2022-08-19T12:14:48;28.17;;;15.98;;
56037;SDS011;41907;47.848;9.000;2022-08-19T12:17:15;26.45;;;15.75;;
56037;SDS011;41907;47.848;9.000;2022-08-19T12:19:40;22.58;;;15.00;;
56037;SDS011;41907;47.848;9.000;2022-08-19T12:22:06;22.73;;;13.65;;
56037;SDS011;41907;47.848;9.000;2022-08-19T12:24:32;24.20;;;14.57;;
56037;SDS011;41907;47.848;9.000;2022-08-19T12:26:58;26.85;;;15.77;;
56037;SDS011;41907;47.848;9.000;2022-08-19T12:29:26;24.17;;;14.02;;
56037;SDS011;41907;47.848;9.000;2022-08-19T12:31:54;24.58;;;14.68;;
56037;SDS011;41907;47.848;9.000;2022-08-19T12:34:26;25.40;;;15.35;;
56037;SDS011;41907;47.848;9.000;2022-08-19T12:36:55;24.48;;;14.70;;
56037;SDS011;41907;47.848;9.000;2022-08-19T12:39:24;24.17;;;15.18;;
56037;SDS011;41907;47.848;9.000;2022-08-19T12:41:50;23.27;;;14.02;;
56037;SDS011;41907;47.848;9.000;2022-08-19T12:44:16;26.83;;;14.55;;
56037;SDS011;41907;47.848;9.000;2022-08-19T12:46:41;25.35;;;15.35;;
56037;SDS011;41907;47.848;9.000;2022-08-19T12:49:07;23.75;;;15.75;;
56037;SDS011;41907;47.848;9.000;2022-08-19T12:51:32;24.42;;;16.17;;
56037;SDS011;41907;47.848;9.000;2022-08-19T12:53:58;24.95;;;16.17;;
56037;SDS011;41907;47.848;9.000;2022-08-19T12:56:24;26.17;;;15.18;;
56037;SDS011;41907;47.848;9.000;2022-08-19T12:58:50;24.13;;;14.73;;
56037;SDS011;41907;47.848;9.000;2022-08-19T13:01:16;23.92;;;15.43;;
56037;SDS011;41907;47.848;9.000;2022-08-19T13:03:44;25.63;;;15.45;;
56037;SDS011;41907;47.848;9.000;2022-08-19T13:06:11;24.15;;;14.95;;
56037;SDS011;41907;47.848;9.000;2022-08-19T13:08:37;19.67;;;13.57;;
56037;SDS011;41907;47.848;9.000;2022-08-19T13:11:11;22.48;;;14.70;;
56037;SDS011;41907;47.848;9.000;2022-08-19T13:13:40;26.70;;;15.77;;
56037;SDS011;41907;47.848;9.000;2022-08-19T13:16:08;24.75;;;15.18;;
56037;SDS011;41907;47.848;9.000;2022-08-19T13:18:35;42.22;;;24.20;;
56037;SDS011;41907;47.848;9.000;2022-08-19T13:21:06;23.73;;;16.10;;
56037;SDS011;41907;47.848;9.000;2022-08-19T13:23:33;22.38;;;14.43;;
56037;SDS011;41907;47.848;9.000;2022-08-19T13:26:01;27.27;;;14.90;;
56037;SDS011;41907;47.848;9.000;2022-08-19T13:28:29;23.45;;;15.05;;
56037;SDS011;41907;47.848;9.000;2022-08-19T13:34:02;21.17;;;14.25;;
56037;SDS011;41907;47.848;9.000;2022-08-19T13:36:28;24.50;;;15.65;;
56037;SDS011;41907;47.848;9.000;2022-08-19T13:38:53;24.48;;;15.38;;
56037;SDS011;41907;47.848;9.000;2022-08-19T13:41:19;22.13;;;14.82;;
56037;SDS011;41907;47.848;9.000;2022-08-19T13:43:44;24.25;;;14.98;;
56037;SDS011;41907;47.848;9.000;2022-08-19T13:46:11;22.45;;;14.18;;
56037;SDS011;41907;47.848;9.000;2022-08-19T13:48:39;22.85;;;13.88;;
56037;SDS011;41907;47.848;9.000;2022-08-19T13:51:08;22.60;;;14.43;;
56037;SDS011;41907;47.848;9.000;2022-08-19T13:53:35;20.60;;;13.25;;
56037;SDS011;41907;47.848;9.000;2022-08-19T13:56:08;22.98;;;13.93;;
56037;SDS011;41907;47.848;9.000;2022-08-19T13:58:35;22.10;;;14.13;;
56037;SDS011;41907;47.848;9.000;2022-08-19T14:01:02;20.95;;;13.82;;
56037;SDS011;41907;47.848;9.000;2022-08-19T14:03:28;22.83;;;13.95;;
56037;SDS011;41907;47.848;9.000;2022-08-19T14:05:53;21.95;;;14.40;;
56037;SDS011;41907;47.848;9.000;2022-08-19T14:08:19;19.75;;;13.52;;
56037;SDS011;41907;47.848;9.000;2022-08-19T14:10:45;24.33;;;14.55;;
56037;SDS011;41907;47.848;9.000;2022-08-19T14:13:13;21.65;;;14.68;;
56037;SDS011;41907;47.848;9.000;2022-08-19T14:15:40;22.17;;;13.52;;
56037;SDS011;41907;47.848;9.000;2022-08-19T14:18:05;21.27;;;13.73;;
56037;SDS011;41907;47.848;9.000;2022-08-19T14:20:33;22.77;;;13.63;;
56037;SDS011;41907;47.848;9.000;2022-08-19T14:22:59;25.63;;;14.48;;
56037;SDS011;41907;47.848;9.000;2022-08-19T14:25:26;18.15;;;12.52;;
56037;SDS011;41907;47.848;9.000;2022-08-19T14:27:52;22.92;;;14.57;;
56037;SDS011;41907;47.848;9.000;2022-08-19T14:30:22;20.95;;;13.63;;
56037;SDS011;41907;47.848;9.000;2022-08-19T14:32:52;22.15;;;13.40;;
56037;SDS011;41907;47.848;9.000;2022-08-19T14:35:19;24.42;;;14.27;;
56037;SDS011;41907;47.848;9.000;2022-08-19T14:37:46;22.10;;;13.65;;
56037;SDS011;41907;47.848;9.000;2022-08-19T14:40:13;21.20;;;14.23;;
56037;SDS011;41907;47.848;9.000;2022-08-19T14:42:41;22.40;;;13.77;;
56037;SDS011;41907;47.848;9.000;2022-08-19T14:45:07;20.23;;;13.43;;